Story, WY (82842)

7:50 AM MST on January 29, 2015 (GMT -0700)
APRSWXNET Story WY US | Change Station
CLOSE
Current Station
Personal Weather Station
Location: Story, WY
Elevation: 5400 ft
Nearby Weather Stations

Elev 5400 ft 44.57 °N, 106.92 °W | Updated 31 minutes ago

Clear
Clear
24 °F
Feels Like 24 °F
N
0
Wind Variable Wind from North
Gusts 1.0 mph

Today
High -- | Low -- °F
--% Chance of Precip.
Yesterday
High -- | Low -- °F
Precip. -- in
7:29 AM 5:12 PM
Waxing Gibbous, 75% visible
Pressure 30.54 in
Visibility 10.0 miles
Clouds Clear
Windchill 24 °F
Dew Point 18 °F
Humidity 76%
Rainfall 0.01 in
Snow Depth Not available.
UV 0 out of 12
Pollen .10 out of 12
Air Quality Not available.
Flu Activity Not available.
METAR KSHR 291353Z AUTO 17003KT 10SM CLR M06/M09 A3043 RMK AO2 SLP342 T10611089

More Conditions Fewer Conditions

Pressure 30.54 in
Visibility 10.0 miles
Clouds Clear
Windchill 24 °F
Dew Point 18 °F
Humidity 76%
Rainfall 0.01 in
Snow Depth Not available.
UV 0 out of 12
Pollen .10 out of 12
Air Quality Not available.
Flu Activity Not available.
METAR KSHR 291353Z AUTO 17003KT 10SM CLR M06/M09 A3043 RMK AO2 SLP342 T10611089

More Conditions Fewer Conditions

10-Day Weather Forecast

Almanac

Astronomy

Jan. 29, 2015 Rise Set
Actual Time
Civil Twilight
Nautical Twilight
Astronomical Twilight
Moon
Length of Visible Light
Length of Day
Tomorrow will be .
, % of the Moon is Illuminated

Today's Extremes

State Highs State Lows

Community

WunderPhotos

Upload Photos

1,791,443 photos uploaded!

WunderBlogs® & News

Nearby

Air Quality

  Air Quality AQ Index Pollutant
Not available.

Snow Depth

Station Depth Elevation

Earthquake Activity

City Distance Mag. Time & Date
Minimum magnitude displayed is 2.5.

Coastal Water Temperatures

Place Temperature

Nearby Weather Stations